Time;durP1;ratioP1;P1;durP2;ratioP2;P2;SDS_P1;SDS_P2;PMS_P1;PMS_P2;Temp;Humidity;BMP_temperature;BMP_pressure;BME280_temperature;BME280_humidity;BME280_pressure;Samples;Min_cycle;Max_cycle;Signal;HPM_P1;HPM_P2
2021/12/12 00:02:34;;;;;;;84.28;34.58;;;3.60;99.90;;;;;;5060694;28;20486;-69
2021/12/12 00:05:07;;;;;;;;;;;3.60;99.90;;;;;;5060678;28;20041;-68
2021/12/12 00:07:33;;;;;;;75.35;35.15;;;3.60;99.90;;;;;;5054635;28;20037;-68
2021/12/12 00:10:07;;;;;;;77.30;35.08;;;3.60;99.90;;;;;;5064772;28;20565;-66
2021/12/12 00:12:41;;;;;;;75.03;33.70;;;3.60;99.90;;;;;;5058601;28;20383;-68
2021/12/12 00:15:08;;;;;;;68.00;33.97;;;3.60;99.90;;;;;;5056226;28;20124;-68
2021/12/12 00:17:35;;;;;;;74.28;34.53;;;3.70;99.90;;;;;;5054850;28;20100;-68
2021/12/12 00:20:00;;;;;;;70.25;34.28;;;3.70;99.90;;;;;;5063016;28;20045;-68
2021/12/12 00:22:28;;;;;;;68.32;34.53;;;3.70;99.90;;;;;;5061616;28;20406;-67
2021/12/12 00:24:55;;;;;;;68.88;35.42;;;3.70;99.90;;;;;;5054863;28;21748;-68
2021/12/12 00:27:21;;;;;;;73.65;33.63;;;3.70;99.90;;;;;;5064286;28;20123;-68
2021/12/12 00:29:48;;;;;;;70.88;33.40;;;3.70;99.90;;;;;;5053151;28;20097;-68
2021/12/12 00:32:16;;;;;;;69.70;34.08;;;3.70;99.90;;;;;;5060289;28;20045;-68
2021/12/12 00:34:47;;;;;;;68.55;34.83;;;3.70;99.90;;;;;;5061475;28;20491;-68
2021/12/12 00:37:13;;;;;;;78.80;35.92;;;3.70;99.90;;;;;;5058587;28;20487;-69
2021/12/12 00:39:43;;;;;;;74.75;34.13;;;3.70;99.90;;;;;;5056972;28;20098;-68
2021/12/12 00:42:13;;;;;;;68.50;33.80;;;3.70;99.90;;;;;;5052193;28;20155;-68
2021/12/12 00:44:43;;;;;;;68.28;33.70;;;3.70;99.90;;;;;;5052298;28;20517;-68
2021/12/12 00:47:10;;;;;;;63.10;32.60;;;3.70;99.90;;;;;;5066488;28;20063;-68
2021/12/12 00:49:38;;;;;;;71.47;33.67;;;3.80;99.90;;;;;;5052483;28;20544;-68
2021/12/12 00:52:06;;;;;;;74.03;33.90;;;3.80;99.90;;;;;;5059350;28;20555;-69
2021/12/12 00:54:33;;;;;;;76.00;34.80;;;3.80;99.90;;;;;;5053885;28;20600;-67
2021/12/12 00:57:01;;;;;;;71.50;33.30;;;3.80;99.90;;;;;;5055917;28;20040;-67
2021/12/12 00:59:28;;;;;;;72.50;35.17;;;3.80;99.90;;;;;;5052408;28;20040;-68
2021/12/12 01:01:55;;;;;;;75.50;35.08;;;3.80;99.90;;;;;;5060450;28;20053;-67
2021/12/12 01:04:28;;;;;;;75.63;35.97;;;3.80;99.90;;;;;;5063107;28;20488;-67
2021/12/12 01:06:56;;;;;;;80.10;36.13;;;3.80;99.90;;;;;;5054130;28;20041;-68
2021/12/12 01:09:26;;;;;;;80.07;35.65;;;4.20;99.90;;;;;;5056682;28;20047;-68
2021/12/12 01:11:54;;;;;;;74.95;36.00;;;3.80;99.90;;;;;;5062812;28;20086;-68
2021/12/12 01:14:25;;;;;;;83.57;36.53;;;3.80;99.90;;;;;;5067114;28;20082;-68
2021/12/12 01:16:59;;;;;;;78.05;36.78;;;3.80;99.90;;;;;;5054862;28;20051;-66
2021/12/12 01:19:36;;;;;;;85.32;38.63;;;3.80;99.90;;;;;;5049710;28;20049;-66
2021/12/12 01:22:11;;;;;;;79.05;36.70;;;3.80;99.90;;;;;;5050583;28;20119;-67
2021/12/12 01:24:41;;;;;;;81.88;36.22;;;3.80;99.90;;;;;;5051918;28;20044;-67
2021/12/12 01:27:08;;;;;;;77.97;37.20;;;3.80;99.90;;;;;;5058804;28;20044;-67
2021/12/12 01:29:34;;;;;;;84.95;38.00;;;3.80;99.90;;;;;;5054151;28;20120;-67
2021/12/12 01:32:03;;;;;;;80.10;36.33;;;3.80;99.90;;;;;;5051670;28;20387;-67
2021/12/12 01:34:31;;;;;;;83.63;38.08;;;3.80;99.90;;;;;;5063213;28;20602;-68
2021/12/12 01:37:33;;;;;;;84.63;38.15;;;3.80;99.90;;;;;;5046720;28;20479;-68
2021/12/12 01:39:59;;;;;;;81.13;36.17;;;3.90;99.90;;;;;;5057568;28;20452;-67
2021/12/12 01:42:36;;;;;;;101.30;38.95;;;3.90;99.90;;;;;;5063366;28;20076;-69
2021/12/12 01:45:08;;;;;;;92.60;40.75;;;3.90;99.90;;;;;;5063980;28;20100;-68
2021/12/12 01:47:55;;;;;;;85.78;37.67;;;3.80;99.90;;;;;;5063121;28;20041;-68
2021/12/12 01:50:32;;;;;;;89.45;40.17;;;3.90;99.90;;;;;;5066268;28;20068;-68
2021/12/12 01:53:02;;;;;;;88.65;38.92;;;3.90;99.90;;;;;;5066275;28;20076;-68
2021/12/12 01:55:39;;;;;;;105.75;43.55;;;3.90;99.90;;;;;;5055115;28;20146;-68
2021/12/12 01:58:11;;;;;;;99.28;40.65;;;3.90;99.90;;;;;;5065080;28;20057;-68
2021/12/12 02:00:46;;;;;;;103.07;42.28;;;3.90;99.90;;;;;;5055998;28;20040;-69
2021/12/12 02:03:15;;;;;;;109.25;42.75;;;3.90;99.90;;;;;;5049776;28;20451;-69
2021/12/12 02:05:41;;;;;;;111.57;43.95;;;3.90;99.90;;;;;;5053677;28;20060;-69
2021/12/12 02:08:12;;;;;;;108.35;42.78;;;3.90;99.90;;;;;;5059554;28;20045;-68
2021/12/12 02:10:43;;;;;;;122.05;44.67;;;3.90;99.90;;;;;;5037351;28;20049;-68
2021/12/12 02:13:11;;;;;;;115.80;42.38;;;3.90;99.90;;;;;;5055693;28;20040;-66
2021/12/12 02:15:38;;;;;;;107.90;42.05;;;3.90;99.90;;;;;;5056827;28;20470;-68
2021/12/12 02:18:12;;;;;;;117.03;43.93;;;3.90;99.90;;;;;;5064542;28;20087;-69
2021/12/12 02:20:47;;;;;;;102.40;41.03;;;3.90;99.90;;;;;;5064080;28;20131;-69
2021/12/12 02:36:52;;;;;;;107.75;42.97;;;3.90;99.90;;;;;;5056965;28;20052;-68
2021/12/12 02:39:18;;;;;;;110.22;40.13;;;4.00;99.90;;;;;;5063061;28;20091;-69
2021/12/12 02:41:48;;;;;;;104.10;42.85;;;4.00;99.90;;;;;;5067917;28;20079;-68
2021/12/12 02:44:16;;;;;;;102.20;40.30;;;4.00;99.90;;;;;;5058336;28;20045;-68
2021/12/12 02:46:45;;;;;;;93.57;37.72;;;4.00;99.90;;;;;;5069911;28;20047;-69
2021/12/12 02:49:26;;;;;;;111.45;41.53;;;4.00;99.90;;;;;;5060626;28;20495;-68
2021/12/12 02:51:52;;;;;;;110.32;40.35;;;4.00;99.90;;;;;;5068744;28;20581;-69
2021/12/12 02:54:19;;;;;;;91.47;37.92;;;4.00;99.90;;;;;;5063274;28;20036;-68
2021/12/12 02:56:47;;;;;;;96.63;38.38;;;4.10;99.90;;;;;;5054066;28;20045;-70
2021/12/12 02:59:17;;;;;;;84.45;37.70;;;4.10;99.90;;;;;;5056091;28;20494;-68
2021/12/12 03:02:05;;;;;;;96.40;40.17;;;4.10;99.90;;;;;;5058616;28;20052;-69
2021/12/12 03:04:33;;;;;;;89.22;37.30;;;4.10;99.90;;;;;;5065705;28;20052;-69
2021/12/12 03:07:00;;;;;;;97.25;38.47;;;4.10;99.90;;;;;;5063231;28;20040;-68
2021/12/12 03:09:35;;;;;;;96.03;37.25;;;4.10;99.90;;;;;;5060442;28;20048;-68
2021/12/12 03:12:31;;;;;;;93.45;38.25;;;4.20;99.90;;;;;;5056592;28;20504;-68
2021/12/12 03:15:08;;;;;;;90.65;36.33;;;4.20;99.90;;;;;;5060569;28;20053;-68
2021/12/12 03:17:35;;;;;;;85.53;36.28;;;4.20;99.90;;;;;;5060689;28;20064;-69
2021/12/12 03:20:10;;;;;;;103.90;38.92;;;4.20;99.90;;;;;;5061654;28;20136;-68
2021/12/12 03:22:36;;;;;;;88.15;36.53;;;4.20;99.90;;;;;;5066427;28;20104;-69
2021/12/12 03:25:03;;;;;;;97.00;36.33;;;4.20;99.90;;;;;;5054453;28;20091;-69
2021/12/12 03:27:29;;;;;;;89.38;36.15;;;4.20;99.90;;;;;;5064363;28;20046;-68
2021/12/12 03:29:54;;;;;;;96.30;37.05;;;4.20;99.90;;;;;;5054383;28;20041;-69
2021/12/12 03:32:22;;;;;;;94.78;36.03;;;4.30;99.90;;;;;;5055124;28;20037;-69
2021/12/12 03:34:54;;;;;;;83.38;34.17;;;4.30;99.90;;;;;;5063658;28;20086;-66
2021/12/12 03:37:23;;;;;;;102.63;35.50;;;4.30;99.90;;;;;;5060886;28;20169;-67
2021/12/12 03:39:52;;;;;;;77.47;32.08;;;4.30;99.90;;;;;;5058058;28;20516;-67
2021/12/12 03:42:22;;;;;;;81.32;32.38;;;4.30;99.90;;;;;;5061813;28;20191;-68
2021/12/12 03:44:49;;;;;;;87.22;33.13;;;4.40;99.90;;;;;;5063374;28;20044;-68
2021/12/12 03:47:53;;;;;;;77.60;32.58;;;4.40;99.90;;;;;;5053118;28;20494;-68
2021/12/12 03:50:23;;;;;;;68.13;30.27;;;4.40;99.90;;;;;;5041526;28;20047;-67
2021/12/12 03:52:50;;;;;;;69.63;30.63;;;4.40;99.90;;;;;;5071562;28;20092;-68
2021/12/12 03:55:16;;;;;;;80.10;32.35;;;4.40;99.90;;;;;;5068270;28;20533;-68
2021/12/12 03:57:44;;;;;;;63.08;28.77;;;4.50;99.90;;;;;;5060654;28;20128;-67
2021/12/12 04:00:16;;;;;;;72.35;30.45;;;4.50;99.90;;;;;;5056330;28;20049;-68
2021/12/12 04:02:41;;;;;;;87.05;31.10;;;4.50;99.90;;;;;;5060008;28;20077;-69
2021/12/12 04:05:08;;;;;;;66.20;28.92;;;4.50;99.90;;;;;;5054162;28;20048;-69
2021/12/12 04:07:34;;;;;;;71.00;30.30;;;4.50;99.90;;;;;;5067182;28;20049;-69
2021/12/12 04:10:00;;;;;;;59.75;28.38;;;4.50;99.90;;;;;;5063282;28;20080;-68
2021/12/12 04:12:26;;;;;;;52.47;26.55;;;4.70;99.90;;;;;;5041689;28;20067;-69
2021/12/12 04:14:54;;;;;;;51.60;24.10;;;4.60;99.90;;;;;;5064736;28;20040;-68
2021/12/12 04:17:23;;;;;;;56.75;26.02;;;4.60;99.90;;;;;;5051718;28;20384;-69
2021/12/12 04:19:53;;;;;;;54.72;26.15;;;4.60;99.90;;;;;;5063140;28;20040;-68
2021/12/12 04:22:19;;;;;;;51.72;24.98;;;4.60;99.90;;;;;;5053306;28;20052;-68
2021/12/12 04:24:48;;;;;;;59.20;25.35;;;4.70;99.90;;;;;;5064716;28;20041;-68
2021/12/12 04:27:15;;;;;;;53.05;25.08;;;4.70;99.90;;;;;;5052011;28;20081;-68
2021/12/12 04:29:44;;;;;;;58.05;25.13;;;4.60;99.90;;;;;;5057832;28;20236;-69
2021/12/12 04:32:20;;;;;;;47.40;23.13;;;4.70;99.90;;;;;;5056974;28;20190;-69
2021/12/12 04:34:51;;;;;;;47.97;23.38;;;4.70;99.90;;;;;;5051650;28;20071;-68
2021/12/12 04:37:17;;;;;;;50.42;25.27;;;4.60;99.90;;;;;;5061210;28;20037;-69
2021/12/12 04:39:48;;;;;;;45.45;21.92;;;4.70;99.90;;;;;;5060836;28;20056;-68
2021/12/12 04:42:22;;;;;;;48.63;23.40;;;4.60;99.90;;;;;;5071044;28;20226;-68
2021/12/12 04:45:14;;;;;;;43.97;22.33;;;4.70;99.90;;;;;;5066912;28;20383;-69
2021/12/12 04:51:10;;;;;;;;;;;4.70;99.90;;;;;;5040093;28;20048;-69
2021/12/12 04:53:41;;;;;;;40.40;21.42;;;4.60;99.90;;;;;;5038030;28;19959;-67
2021/12/12 04:56:33;;;;;;;46.92;22.98;;;4.60;99.90;;;;;;5051616;28;20040;-69
2021/12/12 04:59:03;;;;;;;55.30;23.38;;;4.60;99.90;;;;;;5059671;28;20056;-69
2021/12/12 05:01:45;;;;;;;47.25;22.95;;;4.60;99.90;;;;;;5059784;28;20036;-68
2021/12/12 05:04:22;;;;;;;43.03;22.73;;;4.60;99.90;;;;;;5051064;28;20052;-68
2021/12/12 05:06:58;;;;;;;41.45;21.08;;;4.70;99.90;;;;;;5056502;28;20045;-67
2021/12/12 05:09:47;;;;;;;36.10;20.40;;;4.70;99.90;;;;;;5055614;28;20070;-68
2021/12/12 05:12:29;;;;;;;36.22;20.63;;;4.70;99.90;;;;;;5058497;28;20119;-67
2021/12/12 05:15:00;;;;;;;38.65;20.15;;;4.70;99.90;;;;;;5050173;28;20076;-68
2021/12/12 05:17:31;;;;;;;43.00;20.13;;;4.70;99.90;;;;;;5065912;28;20040;-67
2021/12/12 05:20:01;;;;;;;39.92;20.35;;;4.70;99.90;;;;;;5060200;28;20075;-67
2021/12/12 05:22:38;;;;;;;44.13;22.15;;;4.70;99.90;;;;;;5058764;28;20044;-67
2021/12/12 05:25:08;;;;;;;37.80;19.63;;;4.70;99.90;;;;;;5055271;28;20691;-67
2021/12/12 05:27:37;;;;;;;32.05;18.25;;;4.30;99.90;;;;;;5061047;28;20560;-67
2021/12/12 05:30:15;;;;;;;37.05;19.45;;;4.60;99.90;;;;;;5058639;28;20048;-68
2021/12/12 05:32:41;;;;;;;40.40;19.75;;;4.70;99.90;;;;;;5053762;28;20057;-67
2021/12/12 05:35:10;;;;;;;33.92;18.15;;;4.70;99.90;;;;;;5055619;28;20036;-67
2021/12/12 05:37:36;;;;;;;;;;;4.70;99.90;;;;;;5050852;28;20157;-68
2021/12/12 05:40:05;;;;;;;41.25;19.02;;;4.70;99.90;;;;;;5060899;28;19933;-69
2021/12/12 05:42:32;;;;;;;34.10;19.63;;;4.70;99.90;;;;;;5054005;28;20384;-68
2021/12/12 05:44:59;;;;;;;36.50;19.30;;;4.70;99.90;;;;;;5056514;28;20420;-68
2021/12/12 05:47:25;;;;;;;31.85;19.10;;;4.70;99.90;;;;;;5053722;28;20402;-68
2021/12/12 05:49:51;;;;;;;35.50;20.60;;;4.80;99.90;;;;;;5059351;28;20037;-67
2021/12/12 05:52:19;;;;;;;42.10;20.05;;;4.80;99.90;;;;;;5055893;28;20056;-67
2021/12/12 05:54:46;;;;;;;;;;;4.80;99.90;;;;;;5059607;28;20083;-67
2021/12/12 05:57:17;;;;;;;34.65;18.70;;;4.90;99.90;;;;;;5057986;28;19929;-67
2021/12/12 05:59:43;;;;;;;38.50;18.63;;;4.90;99.90;;;;;;5056271;28;20060;-68
2021/12/12 06:02:09;;;;;;;44.35;20.77;;;4.80;99.90;;;;;;5056350;28;20056;-68
2021/12/12 06:04:36;;;;;;;43.70;21.20;;;4.90;99.90;;;;;;5057504;28;20499;-66
2021/12/12 06:07:05;;;;;;;36.45;19.10;;;4.90;99.90;;;;;;5055709;28;20064;-68
2021/12/12 06:09:33;;;;;;;31.40;18.40;;;5.00;99.90;;;;;;5057534;28;20029;-67
2021/12/12 06:12:01;;;;;;;36.08;19.75;;;5.00;99.90;;;;;;5054437;28;20037;-68
2021/12/12 06:14:28;;;;;;;43.27;20.87;;;5.00;99.90;;;;;;5056042;28;20110;-67
2021/12/12 06:16:54;;;;;;;38.78;20.02;;;5.00;99.90;;;;;;5060026;28;20084;-67
2021/12/12 06:19:22;;;;;;;35.10;19.10;;;5.00;99.90;;;;;;5065192;28;20140;-67
2021/12/12 06:21:57;;;;;;;40.60;20.48;;;5.10;99.90;;;;;;5055176;28;20140;-68
2021/12/12 06:24:25;;;;;;;50.60;21.55;;;5.10;99.90;;;;;;5055102;28;20105;-68
2021/12/12 06:26:53;;;;;;;40.20;19.00;;;5.10;99.90;;;;;;5056557;28;20123;-68
2021/12/12 06:29:19;;;;;;;42.42;20.58;;;5.10;99.90;;;;;;5057175;28;20033;-68
2021/12/12 06:31:49;;;;;;;38.05;20.35;;;5.20;99.90;;;;;;5056257;28;20037;-68
2021/12/12 06:34:15;;;;;;;37.65;20.02;;;5.20;99.90;;;;;;5060241;28;20098;-68
2021/12/12 06:36:43;;;;;;;37.13;19.23;;;5.20;99.90;;;;;;5059667;28;20052;-68
2021/12/12 06:39:13;;;;;;;36.47;19.13;;;5.20;99.90;;;;;;5055758;28;20124;-67
2021/12/12 06:41:39;;;;;;;28.67;15.25;;;5.20;99.90;;;;;;5056943;28;20658;-66
2021/12/12 06:44:07;;;;;;;38.80;17.55;;;5.30;99.90;;;;;;5070087;28;20116;-67
2021/12/12 06:46:34;;;;;;;36.78;18.75;;;5.20;99.90;;;;;;5056316;28;20072;-67
2021/12/12 06:49:03;;;;;;;36.63;19.02;;;5.20;99.90;;;;;;5058414;28;20136;-69
2021/12/12 06:51:31;;;;;;;36.40;18.92;;;5.30;99.90;;;;;;5059704;28;20037;-67
2021/12/12 06:53:57;;;;;;;35.50;18.27;;;5.30;99.90;;;;;;5062978;28;20059;-68
2021/12/12 06:56:26;;;;;;;44.03;19.73;;;5.30;99.90;;;;;;5061937;28;20053;-67
2021/12/12 06:58:52;;;;;;;46.85;20.58;;;5.30;99.90;;;;;;5051435;28;20048;-68
2021/12/12 07:01:27;;;;;;;33.75;17.95;;;5.40;99.90;;;;;;5060748;28;20094;-66
2021/12/12 07:03:57;;;;;;;34.00;19.13;;;5.40;99.90;;;;;;5055143;28;20514;-68
2021/12/12 07:06:25;;;;;;;40.13;20.38;;;5.40;99.90;;;;;;5056457;28;20049;-69
2021/12/12 07:08:52;;;;;;;44.70;20.67;;;5.50;99.90;;;;;;5061706;28;20052;-68
2021/12/12 07:11:24;;;;;;;48.65;20.70;;;5.50;99.90;;;;;;5057842;28;20067;-68
2021/12/12 07:13:50;;;;;;;38.08;19.38;;;5.50;99.90;;;;;;5062602;28;20433;-68
2021/12/12 07:16:19;;;;;;;44.10;20.70;;;5.50;99.90;;;;;;5041107;28;20040;-68
2021/12/12 07:18:47;;;;;;;47.90;21.67;;;5.50;99.90;;;;;;5062153;28;20048;-68
2021/12/12 07:21:16;;;;;;;39.88;20.45;;;5.50;99.90;;;;;;5060427;28;20118;-68
2021/12/12 07:23:43;;;;;;;45.92;20.23;;;5.50;99.90;;;;;;5062084;28;20041;-69
2021/12/12 07:26:12;;;;;;;43.00;21.15;;;5.50;99.90;;;;;;5067513;28;20052;-68
2021/12/12 07:28:39;;;;;;;53.30;21.90;;;5.50;99.90;;;;;;5067644;28;20474;-68
2021/12/12 07:31:21;;;;;;;44.72;21.48;;;5.50;99.90;;;;;;5060279;28;20051;-68
2021/12/12 07:33:51;;;;;;;45.88;21.30;;;5.60;99.90;;;;;;5062474;28;20040;-69
2021/12/12 07:36:19;;;;;;;47.45;20.95;;;5.60;99.90;;;;;;5055439;28;20111;-69
2021/12/12 07:38:48;;;;;;;49.78;21.05;;;5.60;99.90;;;;;;5058776;28;20065;-68
2021/12/12 07:41:18;;;;;;;44.63;21.08;;;5.60;99.90;;;;;;5054118;28;20044;-69
2021/12/12 07:43:44;;;;;;;58.15;22.45;;;5.60;99.90;;;;;;5057534;28;20044;-68
2021/12/12 07:46:09;;;;;;;46.45;21.08;;;5.70;99.90;;;;;;5055841;28;20040;-69
2021/12/12 07:48:36;;;;;;;49.92;22.23;;;5.70;99.90;;;;;;5055898;28;20053;-68
2021/12/12 07:51:04;;;;;;;51.72;21.90;;;5.70;99.90;;;;;;5054794;28;20083;-70
2021/12/12 07:53:29;;;;;;;50.95;20.70;;;5.80;99.90;;;;;;5062641;28;20516;-67
2021/12/12 07:55:56;;;;;;;46.42;21.65;;;5.80;99.90;;;;;;5045172;28;20130;-68
2021/12/12 07:58:24;;;;;;;42.05;20.17;;;5.80;99.90;;;;;;5053047;28;20171;-67
2021/12/12 08:00:52;;;;;;;47.88;21.38;;;5.80;99.90;;;;;;5061266;28;20142;-67
2021/12/12 08:03:26;;;;;;;48.05;21.88;;;5.90;99.90;;;;;;5057278;28;20056;-66
2021/12/12 08:05:52;;;;;;;58.45;23.17;;;5.90;99.90;;;;;;5044537;28;20442;-68
2021/12/12 08:08:18;;;;;;;58.92;22.95;;;5.90;99.90;;;;;;5056686;28;20041;-68
2021/12/12 08:10:46;;;;;;;52.45;22.13;;;6.00;99.90;;;;;;5054884;28;20123;-68
2021/12/12 08:13:15;;;;;;;60.42;23.25;;;6.00;99.90;;;;;;5053940;28;20068;-68
2021/12/12 08:15:41;;;;;;;;;;;6.00;99.90;;;;;;5057791;28;20043;-68
2021/12/12 08:18:09;;;;;;;48.40;21.55;;;6.00;99.90;;;;;;5052349;28;19920;-69
2021/12/12 08:20:37;;;;;;;56.15;21.92;;;6.00;99.90;;;;;;5058425;28;20053;-69
2021/12/12 08:23:04;;;;;;;50.08;21.77;;;6.20;99.90;;;;;;5055102;28;20043;-68
2021/12/12 08:25:31;;;;;;;53.85;21.70;;;6.00;99.90;;;;;;5055532;28;20143;-66
2021/12/12 08:28:03;;;;;;;47.75;21.33;;;6.10;99.90;;;;;;5051630;28;20107;-69
2021/12/12 08:30:30;;;;;;;60.95;22.60;;;6.10;99.90;;;;;;5049762;28;20055;-69
2021/12/12 08:32:57;;;;;;;57.33;23.52;;;6.10;99.90;;;;;;5052464;28;20051;-69
2021/12/12 08:35:25;;;;;;;58.55;22.35;;;6.20;99.90;;;;;;5057292;28;20049;-67
2021/12/12 08:37:51;;;;;;;57.95;22.63;;;6.20;99.90;;;;;;5057079;28;20045;-67
2021/12/12 08:40:21;;;;;;;74.63;24.05;;;6.20;99.90;;;;;;5052991;28;20091;-67
2021/12/12 08:42:49;;;;;;;53.92;23.10;;;6.20;99.90;;;;;;5061140;28;20052;-68
2021/12/12 08:45:19;;;;;;;60.88;23.15;;;6.20;99.90;;;;;;5058783;28;20047;-69
2021/12/12 08:47:47;;;;;;;59.13;23.63;;;6.30;99.90;;;;;;5052177;28;20044;-68
2021/12/12 08:50:16;;;;;;;62.22;23.85;;;6.30;99.90;;;;;;5056154;28;20068;-68
2021/12/12 08:52:45;;;;;;;84.90;27.50;;;6.30;99.90;;;;;;5054240;28;20076;-69
2021/12/12 08:55:19;;;;;;;68.88;25.88;;;6.30;99.90;;;;;;5051764;28;20056;-67
2021/12/12 08:57:57;;;;;;;72.68;25.05;;;6.30;99.90;;;;;;5052566;28;20360;-68
2021/12/12 09:00:25;;;;;;;70.70;25.65;;;6.30;99.90;;;;;;5061626;28;20041;-68
2021/12/12 09:02:52;;;;;;;70.65;25.23;;;6.40;99.90;;;;;;5060694;28;20196;-68
2021/12/12 09:05:25;;;;;;;71.40;25.20;;;6.40;99.90;;;;;;5055941;28;20395;-68
2021/12/12 09:07:55;;;;;;;62.45;24.38;;;6.40;99.90;;;;;;5060799;28;20572;-67
2021/12/12 09:10:28;;;;;;;70.95;25.90;;;6.40;99.90;;;;;;5055151;28;20120;-67
2021/12/12 09:13:17;;;;;;;68.57;26.60;;;6.40;99.90;;;;;;5059230;28;20056;-67
2021/12/12 09:16:08;;;;;;;89.20;27.40;;;6.40;99.90;;;;;;5066327;28;20044;-68
2021/12/12 09:18:38;;;;;;;89.65;28.58;;;6.50;99.90;;;;;;5071598;28;20040;-68
2021/12/12 09:21:11;;;;;;;84.22;26.80;;;6.50;99.90;;;;;;5059175;28;20084;-69
2021/12/12 09:23:45;;;;;;;66.90;26.92;;;6.50;99.90;;;;;;5054557;28;20091;-68
2021/12/12 09:26:23;;;;;;;97.15;28.67;;;6.60;99.90;;;;;;5062075;28;20036;-68
2021/12/12 09:28:55;;;;;;;95.00;29.37;;;6.60;99.90;;;;;;5057205;28;20048;-67
2021/12/12 09:31:32;;;;;;;100.78;30.83;;;6.60;99.90;;;;;;5060619;28;20041;-68
2021/12/12 09:34:17;;;;;;;111.15;32.25;;;6.60;99.90;;;;;;5059817;28;20148;-67
2021/12/12 09:36:48;;;;;;;90.22;30.98;;;6.70;99.90;;;;;;5063159;28;20099;-68
2021/12/12 09:39:18;;;;;;;85.85;29.05;;;6.70;99.90;;;;;;5057796;28;20131;-68
2021/12/12 09:42:01;;;;;;;99.05;31.23;;;6.70;99.90;;;;;;5059225;28;20041;-68
2021/12/12 09:44:51;;;;;;;94.10;31.23;;;6.70;99.90;;;;;;5064695;28;21601;-68
2021/12/12 09:47:57;;;;;;;124.97;34.20;;;6.80;99.90;;;;;;5065482;28;20445;-68
2021/12/12 09:53:52;;;;;;;119.72;34.35;;;6.80;99.90;;;;;;5066866;28;20521;-66
2021/12/12 09:56:56;;;;;;;109.28;33.00;;;6.90;99.90;;;;;;5056594;28;20368;-68
2021/12/12 09:59:46;;;;;;;141.80;36.35;;;6.90;99.90;;;;;;5054587;28;20132;-68
2021/12/12 10:02:30;;;;;;;129.73;35.92;;;6.90;99.90;;;;;;5066197;28;20041;-68
2021/12/12 10:05:15;;;;;;;136.35;37.35;;;6.90;99.90;;;;;;5059080;28;20107;-68
2021/12/12 10:08:09;;;;;;;139.73;37.20;;;7.00;99.90;;;;;;5058011;28;20083;-67
2021/12/12 10:10:43;;;;;;;152.70;37.65;;;7.00;99.90;;;;;;5065898;28;20051;-68
2021/12/12 10:13:14;;;;;;;161.20;38.88;;;7.10;99.90;;;;;;5055670;28;20094;-68
2021/12/12 10:15:45;;;;;;;180.60;42.45;;;7.10;99.90;;;;;;5055172;28;20437;-68
2021/12/12 10:18:28;;;;;;;156.35;39.28;;;7.10;99.90;;;;;;5056558;28;20057;-67
2021/12/12 10:21:33;;;;;;;145.95;39.58;;;7.20;99.90;;;;;;5057583;28;20515;-69
2021/12/12 10:24:23;;;;;;;148.70;38.75;;;7.20;99.90;;;;;;5058378;28;20063;-69
2021/12/12 10:27:00;;;;;;;140.02;38.33;;;7.30;99.90;;;;;;5057677;28;20036;-67
2021/12/12 10:29:47;;;;;;;144.77;38.90;;;7.40;99.90;;;;;;5058455;28;20541;-67
2021/12/12 10:32:21;;;;;;;134.32;39.03;;;7.40;99.90;;;;;;5060930;28;20423;-68
2021/12/12 10:35:02;;;;;;;219.48;51.20;;;7.50;99.90;;;;;;5053397;28;20045;-67
2021/12/12 10:37:34;;;;;;;170.40;42.10;;;7.50;99.90;;;;;;5062440;28;20041;-69
2021/12/12 10:40:18;;;;;;;168.18;41.30;;;7.60;99.90;;;;;;5057653;28;20048;-68
2021/12/12 10:42:48;;;;;;;148.85;39.10;;;7.60;99.90;;;;;;5066521;28;20048;-69
2021/12/12 10:45:35;;;;;;;155.52;40.55;;;7.70;99.90;;;;;;5056565;28;20048;-69
2021/12/12 10:48:06;;;;;;;144.75;39.35;;;7.70;99.90;;;;;;5059476;28;20423;-69
2021/12/12 10:50:41;;;;;;;137.05;37.03;;;7.70;99.90;;;;;;5055846;28;20052;-70
2021/12/12 10:53:09;;;;;;;133.35;38.00;;;7.80;99.90;;;;;;5054695;28;20106;-68
2021/12/12 10:56:09;;;;;;;126.70;38.30;;;8.00;99.90;;;;;;5048137;28;20408;-67
2021/12/12 10:58:39;;;;;;;137.60;37.38;;;7.90;99.90;;;;;;5041808;28;20057;-71
2021/12/12 11:01:26;;;;;;;132.48;37.75;;;7.90;99.90;;;;;;5054592;28;20360;-70
2021/12/12 11:04:03;;;;;;;119.70;35.65;;;7.90;99.90;;;;;;5061350;28;20080;-70
2021/12/12 11:06:34;;;;;;;133.75;38.17;;;7.90;99.90;;;;;;5060126;28;20080;-71
2021/12/12 11:09:06;;;;;;;139.48;38.17;;;8.00;99.90;;;;;;5055239;28;20415;-70
2021/12/12 11:11:46;;;;;;;150.85;37.42;;;8.00;99.90;;;;;;5054150;28;20037;-71
2021/12/12 11:14:18;;;;;;;135.45;35.22;;;8.00;99.90;;;;;;5059763;28;20047;-71
2021/12/12 11:17:08;;;;;;;140.85;35.47;;;8.10;99.90;;;;;;5062757;28;20043;-69
2021/12/12 11:19:53;;;;;;;138.00;37.60;;;8.10;99.90;;;;;;5054420;28;20056;-71
2021/12/12 11:22:27;;;;;;;149.88;37.67;;;8.10;99.90;;;;;;5065010;28;20135;-71
2021/12/12 11:25:00;;;;;;;109.18;34.30;;;8.10;99.90;;;;;;5058608;28;20068;-70
2021/12/12 11:27:42;;;;;;;115.32;31.90;;;8.10;99.90;;;;;;5052962;28;20041;-70
2021/12/12 11:30:08;;;;;;;106.47;32.53;;;8.10;99.90;;;;;;5063338;28;20126;-70
2021/12/12 11:32:35;;;;;;;112.90;31.05;;;8.20;99.90;;;;;;5060680;28;20080;-70
2021/12/12 11:35:04;;;;;;;99.55;31.00;;;8.30;99.90;;;;;;5054231;28;20040;-70
2021/12/12 11:37:35;;;;;;;121.18;36.03;;;8.30;99.90;;;;;;5057815;28;20383;-70
2021/12/12 11:40:19;;;;;;;95.45;31.08;;;8.50;99.90;;;;;;5062413;28;20053;-69
2021/12/12 11:42:52;;;;;;;108.13;30.58;;;8.40;99.90;;;;;;5043551;28;20394;-70
2021/12/12 11:45:29;;;;;;;109.95;32.15;;;8.50;99.90;;;;;;5058457;28;20049;-71
2021/12/12 11:48:28;;;;;;;100.95;30.55;;;8.50;99.90;;;;;;5064277;28;20040;-69
2021/12/12 11:50:56;;;;;;;89.90;29.83;;;8.60;99.90;;;;;;5057388;28;20110;-68
2021/12/12 11:53:43;;;;;;;;;;;8.60;99.90;;;;;;5060503;28;20071;-69
2021/12/12 11:56:32;;;;;;;96.15;30.35;;;8.60;99.90;;;;;;5054358;28;19921;-69
2021/12/12 11:59:03;;;;;;;103.82;31.75;;;8.60;99.90;;;;;;5069296;28;20072;-68
2021/12/12 12:01:36;;;;;;;109.35;31.48;;;8.70;99.90;;;;;;5063263;28;20103;-69
2021/12/12 12:04:05;;;;;;;80.85;28.35;;;8.70;99.90;;;;;;5073574;28;20122;-68
2021/12/12 12:06:49;;;;;;;;;;;8.70;99.90;;;;;;5062724;28;20102;-68
2021/12/12 12:09:32;;;;;;;88.53;28.77;;;8.80;99.90;;;;;;5063225;28;19931;-70
2021/12/12 12:12:10;;;;;;;89.45;29.98;;;8.80;99.90;;;;;;5057232;28;20499;-70
2021/12/12 12:15:00;;;;;;;107.22;31.02;;;8.90;99.90;;;;;;5062464;28;20052;-70
2021/12/12 12:17:49;;;;;;;104.55;31.23;;;8.90;99.90;;;;;;5063301;28;20155;-69
2021/12/12 12:20:36;;;;;;;87.47;29.23;;;8.90;99.90;;;;;;5058012;28;20048;-70
2021/12/12 12:23:33;;;;;;;83.07;28.17;;;8.90;99.90;;;;;;5061024;28;20041;-68
2021/12/12 12:28:57;;;;;;;84.07;27.38;;;8.90;99.90;;;;;;5058694;28;20164;-69
2021/12/12 12:31:39;;;;;;;76.57;26.35;;;8.90;99.90;;;;;;5061544;28;20076;-68
2021/12/12 12:34:42;;;;;;;90.90;27.50;;;9.00;99.90;;;;;;5061662;28;20044;-70
2021/12/12 12:37:45;;;;;;;65.43;22.98;;;8.90;99.90;;;;;;5061819;28;20043;-69
2021/12/12 12:40:48;;;;;;;68.65;23.20;;;9.00;99.90;;;;;;5066164;28;20040;-67
2021/12/12 12:43:33;;;;;;;62.30;22.55;;;9.00;99.90;;;;;;5035974;28;20085;-70
2021/12/12 12:46:20;;;;;;;80.22;24.67;;;9.00;99.90;;;;;;5053550;28;20044;-69
2021/12/12 12:48:45;;;;;;;76.72;24.52;;;9.00;99.90;;;;;;5064014;28;20169;-70
2021/12/12 12:51:26;;;;;;;84.78;25.08;;;9.00;99.90;;;;;;5057279;28;20059;-69
2021/12/12 12:54:16;;;;;;;64.38;21.33;;;9.10;99.90;;;;;;5049635;28;20048;-69
2021/12/12 12:57:21;;;;;;;75.65;22.73;;;9.00;99.90;;;;;;5065034;28;20048;-70
2021/12/12 12:59:57;;;;;;;73.43;22.27;;;9.10;99.90;;;;;;5051249;28;20041;-68
2021/12/12 13:02:35;;;;;;;56.80;21.05;;;9.10;99.90;;;;;;5051827;28;20044;-69
2021/12/12 13:05:23;;;;;;;77.63;22.67;;;9.10;99.90;;;;;;5056307;28;20132;-69
2021/12/12 13:08:27;;;;;;;57.78;20.48;;;9.10;99.90;;;;;;5054993;28;20041;-69
2021/12/12 13:10:57;;;;;;;53.45;19.48;;;9.10;99.90;;;;;;5055054;28;20174;-70
2021/12/12 13:13:28;;;;;;;78.43;22.13;;;9.20;99.90;;;;;;5058576;28;20083;-69
2021/12/12 13:16:09;;;;;;;66.25;21.23;;;9.20;99.90;;;;;;5058131;28;20094;-71
2021/12/12 13:18:52;;;;;;;55.13;18.73;;;9.20;99.90;;;;;;5045359;28;20064;-70
2021/12/12 13:21:56;;;;;;;52.10;19.33;;;9.20;99.90;;;;;;5057491;28;20472;-69
2021/12/12 13:24:53;;;;;;;50.90;19.00;;;9.20;99.90;;;;;;5054085;28;20869;-70
2021/12/12 13:28:17;;;;;;;67.90;19.98;;;9.30;99.90;;;;;;5059277;28;20086;-70
2021/12/12 13:30:44;;;;;;;55.63;19.70;;;9.20;99.90;;;;;;5057451;28;20425;-69
2021/12/12 13:33:26;;;;;;;64.45;19.60;;;9.20;99.90;;;;;;5061184;28;20076;-69